Elbridge, New York
Current Conditions -  °F | °C
As of 1:54 AM on Wednesday 22 Oct 2014 (Local Time) from KSYR Reporting Station
Haze Haze  
Wind Chill: 45°   Ceiling: 2500
Heat Index: 49°   Visibility: 6mi
Dew Point: 46°   Wind: 7mph
Humidity: 92%   Direction: 340°NNW
Pressure: 30.04"   Gusts: NA
Location:  43.03°N, 76.45°W
Report Text: KSYR 220554Z 34006KT 6SM BR FEW006 SCT012 OVC025 09/08 A3004 RMK SLP171 T00920080 10114 20092 52011
Loading
Personal Weather Stations






























Interactive Weather Map
Tropical Storm Tracking
New forecast layout! Learn more

10-Day Weather Forecast

Advertisements
Track Severe Weather on mobile